sensor_id;sensor_type;location;lat;lon;timestamp;P1;durP1;ratioP1;P2;durP2;ratioP2
43664;SDS011;29263;48.172;11.484;2024-02-21T00:00:14;2.17;;;1.17;;
43664;SDS011;29263;48.172;11.484;2024-02-21T00:02:40;3.53;;;1.10;;
43664;SDS011;29263;48.172;11.484;2024-02-21T00:05:06;5.13;;;1.03;;
43664;SDS011;29263;48.172;11.484;2024-02-21T00:07:32;1.87;;;1.20;;
43664;SDS011;29263;48.172;11.484;2024-02-21T00:09:57;3.10;;;1.20;;
43664;SDS011;29263;48.172;11.484;2024-02-21T00:12:23;4.43;;;1.17;;
43664;SDS011;29263;48.172;11.484;2024-02-21T00:14:49;2.57;;;1.10;;
43664;SDS011;29263;48.172;11.484;2024-02-21T00:17:15;2.47;;;1.20;;
43664;SDS011;29263;48.172;11.484;2024-02-21T00:19:40;4.80;;;1.73;;
43664;SDS011;29263;48.172;11.484;2024-02-21T00:22:06;3.83;;;1.13;;
43664;SDS011;29263;48.172;11.484;2024-02-21T00:24:31;2.33;;;1.07;;
43664;SDS011;29263;48.172;11.484;2024-02-21T00:26:57;3.87;;;1.17;;
43664;SDS011;29263;48.172;11.484;2024-02-21T00:29:23;3.93;;;0.83;;
43664;SDS011;29263;48.172;11.484;2024-02-21T00:31:48;3.93;;;0.93;;
43664;SDS011;29263;48.172;11.484;2024-02-21T00:34:14;3.63;;;1.40;;
43664;SDS011;29263;48.172;11.484;2024-02-21T00:36:40;2.83;;;1.13;;
43664;SDS011;29263;48.172;11.484;2024-02-21T00:39:05;2.67;;;0.90;;
43664;SDS011;29263;48.172;11.484;2024-02-21T00:41:31;3.20;;;1.00;;
43664;SDS011;29263;48.172;11.484;2024-02-21T00:43:57;4.50;;;1.00;;
43664;SDS011;29263;48.172;11.484;2024-02-21T00:46:22;2.50;;;0.80;;
43664;SDS011;29263;48.172;11.484;2024-02-21T00:48:48;3.10;;;0.93;;
43664;SDS011;29263;48.172;11.484;2024-02-21T00:51:14;6.27;;;1.37;;
43664;SDS011;29263;48.172;11.484;2024-02-21T00:53:41;3.07;;;1.10;;
43664;SDS011;29263;48.172;11.484;2024-02-21T00:56:07;4.13;;;1.30;;
43664;SDS011;29263;48.172;11.484;2024-02-21T00:58:33;2.13;;;1.10;;
43664;SDS011;29263;48.172;11.484;2024-02-21T01:00:59;2.17;;;0.70;;
43664;SDS011;29263;48.172;11.484;2024-02-21T01:03:25;4.77;;;1.50;;
43664;SDS011;29263;48.172;11.484;2024-02-21T01:05:51;17.20;;;3.43;;
43664;SDS011;29263;48.172;11.484;2024-02-21T01:08:17;4.70;;;1.10;;
43664;SDS011;29263;48.172;11.484;2024-02-21T01:10:42;2.50;;;1.63;;
43664;SDS011;29263;48.172;11.484;2024-02-21T01:13:08;6.40;;;1.33;;
43664;SDS011;29263;48.172;11.484;2024-02-21T01:15:34;3.40;;;1.03;;
43664;SDS011;29263;48.172;11.484;2024-02-21T01:18:00;2.40;;;1.10;;
43664;SDS011;29263;48.172;11.484;2024-02-21T01:20:26;6.97;;;1.30;;
43664;SDS011;29263;48.172;11.484;2024-02-21T01:22:51;3.57;;;1.00;;
43664;SDS011;29263;48.172;11.484;2024-02-21T01:25:17;2.10;;;1.03;;
43664;SDS011;29263;48.172;11.484;2024-02-21T01:27:43;7.10;;;1.80;;
43664;SDS011;29263;48.172;11.484;2024-02-21T01:30:08;4.83;;;1.33;;
43664;SDS011;29263;48.172;11.484;2024-02-21T01:32:35;5.60;;;1.50;;
43664;SDS011;29263;48.172;11.484;2024-02-21T01:35:01;4.50;;;1.50;;
43664;SDS011;29263;48.172;11.484;2024-02-21T01:37:27;1.93;;;0.90;;
43664;SDS011;29263;48.172;11.484;2024-02-21T01:39:52;2.60;;;1.07;;
43664;SDS011;29263;48.172;11.484;2024-02-21T01:42:18;3.27;;;0.93;;
43664;SDS011;29263;48.172;11.484;2024-02-21T01:44:44;4.93;;;1.17;;
43664;SDS011;29263;48.172;11.484;2024-02-21T01:47:10;3.63;;;1.20;;
43664;SDS011;29263;48.172;11.484;2024-02-21T01:49:38;2.00;;;0.87;;
43664;SDS011;29263;48.172;11.484;2024-02-21T01:52:05;2.57;;;0.90;;
43664;SDS011;29263;48.172;11.484;2024-02-21T01:54:31;2.97;;;1.20;;
43664;SDS011;29263;48.172;11.484;2024-02-21T01:56:57;2.90;;;0.83;;
43664;SDS011;29263;48.172;11.484;2024-02-21T01:59:23;2.27;;;0.80;;
43664;SDS011;29263;48.172;11.484;2024-02-21T02:01:50;3.47;;;0.93;;
43664;SDS011;29263;48.172;11.484;2024-02-21T02:04:16;2.30;;;0.90;;
43664;SDS011;29263;48.172;11.484;2024-02-21T02:06:42;1.70;;;0.90;;
43664;SDS011;29263;48.172;11.484;2024-02-21T02:09:08;2.33;;;1.00;;
43664;SDS011;29263;48.172;11.484;2024-02-21T02:11:34;2.33;;;0.80;;
43664;SDS011;29263;48.172;11.484;2024-02-21T02:14:00;4.63;;;1.07;;
43664;SDS011;29263;48.172;11.484;2024-02-21T02:16:26;1.40;;;1.10;;
43664;SDS011;29263;48.172;11.484;2024-02-21T02:18:52;3.73;;;1.17;;
43664;SDS011;29263;48.172;11.484;2024-02-21T02:21:23;2.43;;;0.90;;
43664;SDS011;29263;48.172;11.484;2024-02-21T02:24:03;3.93;;;0.90;;
43664;SDS011;29263;48.172;11.484;2024-02-21T02:26:29;1.87;;;1.00;;
43664;SDS011;29263;48.172;11.484;2024-02-21T02:28:55;2.60;;;1.10;;
43664;SDS011;29263;48.172;11.484;2024-02-21T02:31:20;2.70;;;0.77;;
43664;SDS011;29263;48.172;11.484;2024-02-21T02:33:46;4.33;;;0.90;;
43664;SDS011;29263;48.172;11.484;2024-02-21T02:36:13;2.53;;;0.70;;
43664;SDS011;29263;48.172;11.484;2024-02-21T02:38:38;1.70;;;0.70;;
43664;SDS011;29263;48.172;11.484;2024-02-21T02:41:04;3.63;;;0.93;;
43664;SDS011;29263;48.172;11.484;2024-02-21T02:43:30;5.87;;;0.87;;
43664;SDS011;29263;48.172;11.484;2024-02-21T02:45:56;2.97;;;0.80;;
43664;SDS011;29263;48.172;11.484;2024-02-21T02:48:22;3.27;;;0.80;;
43664;SDS011;29263;48.172;11.484;2024-02-21T02:50:47;1.40;;;0.73;;
43664;SDS011;29263;48.172;11.484;2024-02-21T02:53:14;2.80;;;1.00;;
43664;SDS011;29263;48.172;11.484;2024-02-21T02:55:40;1.17;;;0.70;;
43664;SDS011;29263;48.172;11.484;2024-02-21T02:58:05;1.93;;;0.70;;
43664;SDS011;29263;48.172;11.484;2024-02-21T03:00:31;1.30;;;0.70;;
43664;SDS011;29263;48.172;11.484;2024-02-21T03:03:01;1.88;;;0.55;;
43664;SDS011;29263;48.172;11.484;2024-02-21T03:05:29;4.13;;;1.27;;
43664;SDS011;29263;48.172;11.484;2024-02-21T03:07:54;2.97;;;1.10;;
43664;SDS011;29263;48.172;11.484;2024-02-21T03:10:20;2.00;;;0.80;;
43664;SDS011;29263;48.172;11.484;2024-02-21T03:12:46;2.77;;;0.80;;
43664;SDS011;29263;48.172;11.484;2024-02-21T03:15:12;1.43;;;0.67;;
43664;SDS011;29263;48.172;11.484;2024-02-21T03:17:38;1.13;;;0.80;;
43664;SDS011;29263;48.172;11.484;2024-02-21T03:20:04;2.93;;;0.80;;
43664;SDS011;29263;48.172;11.484;2024-02-21T03:22:31;1.10;;;0.77;;
43664;SDS011;29263;48.172;11.484;2024-02-21T03:24:57;2.03;;;0.60;;
43664;SDS011;29263;48.172;11.484;2024-02-21T03:27:23;1.33;;;0.60;;
43664;SDS011;29263;48.172;11.484;2024-02-21T03:29:48;0.80;;;0.73;;
43664;SDS011;29263;48.172;11.484;2024-02-21T03:32:14;0.93;;;0.57;;
43664;SDS011;29263;48.172;11.484;2024-02-21T03:34:40;3.27;;;0.87;;
43664;SDS011;29263;48.172;11.484;2024-02-21T03:37:05;0.87;;;0.50;;
43664;SDS011;29263;48.172;11.484;2024-02-21T03:39:31;2.40;;;0.90;;
43664;SDS011;29263;48.172;11.484;2024-02-21T03:41:59;2.03;;;0.93;;
43664;SDS011;29263;48.172;11.484;2024-02-21T03:44:29;1.57;;;0.70;;
43664;SDS011;29263;48.172;11.484;2024-02-21T03:46:58;3.90;;;0.70;;
43664;SDS011;29263;48.172;11.484;2024-02-21T03:49:24;1.37;;;0.50;;
43664;SDS011;29263;48.172;11.484;2024-02-21T03:51:49;1.10;;;0.70;;
43664;SDS011;29263;48.172;11.484;2024-02-21T03:54:15;1.10;;;0.70;;
43664;SDS011;29263;48.172;11.484;2024-02-21T03:56:41;1.10;;;0.50;;
43664;SDS011;29263;48.172;11.484;2024-02-21T03:59:06;1.87;;;0.60;;
43664;SDS011;29263;48.172;11.484;2024-02-21T04:01:33;2.40;;;1.00;;
43664;SDS011;29263;48.172;11.484;2024-02-21T04:03:59;1.87;;;0.90;;
43664;SDS011;29263;48.172;11.484;2024-02-21T04:06:25;1.70;;;0.70;;
43664;SDS011;29263;48.172;11.484;2024-02-21T04:08:50;1.37;;;0.80;;
43664;SDS011;29263;48.172;11.484;2024-02-21T04:11:16;1.10;;;0.70;;
43664;SDS011;29263;48.172;11.484;2024-02-21T04:13:43;2.77;;;0.80;;
43664;SDS011;29263;48.172;11.484;2024-02-21T04:16:09;2.00;;;0.50;;
43664;SDS011;29263;48.172;11.484;2024-02-21T04:18:35;2.40;;;0.80;;
43664;SDS011;29263;48.172;11.484;2024-02-21T04:21:01;1.23;;;0.70;;
43664;SDS011;29263;48.172;11.484;2024-02-21T04:23:26;1.00;;;0.70;;
43664;SDS011;29263;48.172;11.484;2024-02-21T04:25:52;2.97;;;0.60;;
43664;SDS011;29263;48.172;11.484;2024-02-21T04:28:18;2.17;;;0.63;;
43664;SDS011;29263;48.172;11.484;2024-02-21T04:30:43;2.03;;;0.83;;
43664;SDS011;29263;48.172;11.484;2024-02-21T04:33:09;1.33;;;0.87;;
43664;SDS011;29263;48.172;11.484;2024-02-21T04:35:37;4.00;;;0.60;;
43664;SDS011;29263;48.172;11.484;2024-02-21T04:38:04;2.05;;;0.73;;
43664;SDS011;29263;48.172;11.484;2024-02-21T04:40:30;1.33;;;0.60;;
43664;SDS011;29263;48.172;11.484;2024-02-21T04:42:55;1.37;;;0.53;;
43664;SDS011;29263;48.172;11.484;2024-02-21T04:45:22;2.13;;;0.60;;
43664;SDS011;29263;48.172;11.484;2024-02-21T04:47:47;0.50;;;0.40;;
43664;SDS011;29263;48.172;11.484;2024-02-21T04:50:13;2.07;;;0.60;;
43664;SDS011;29263;48.172;11.484;2024-02-21T04:52:39;1.10;;;0.60;;
43664;SDS011;29263;48.172;11.484;2024-02-21T04:55:05;0.90;;;0.50;;
43664;SDS011;29263;48.172;11.484;2024-02-21T04:57:31;2.30;;;0.53;;
43664;SDS011;29263;48.172;11.484;2024-02-21T04:59:56;1.03;;;0.60;;
43664;SDS011;29263;48.172;11.484;2024-02-21T05:02:22;1.83;;;0.63;;
43664;SDS011;29263;48.172;11.484;2024-02-21T05:04:49;2.53;;;0.80;;
43664;SDS011;29263;48.172;11.484;2024-02-21T05:07:15;1.93;;;0.57;;
43664;SDS011;29263;48.172;11.484;2024-02-21T05:09:42;2.00;;;0.50;;
43664;SDS011;29263;48.172;11.484;2024-02-21T05:12:08;2.33;;;0.67;;
43664;SDS011;29263;48.172;11.484;2024-02-21T05:14:33;0.93;;;0.60;;
43664;SDS011;29263;48.172;11.484;2024-02-21T05:16:59;1.10;;;0.40;;
43664;SDS011;29263;48.172;11.484;2024-02-21T05:19:25;0.97;;;0.50;;
43664;SDS011;29263;48.172;11.484;2024-02-21T05:21:50;0.60;;;0.53;;
43664;SDS011;29263;48.172;11.484;2024-02-21T05:24:16;2.40;;;0.70;;
43664;SDS011;29263;48.172;11.484;2024-02-21T05:26:42;1.27;;;0.60;;
43664;SDS011;29263;48.172;11.484;2024-02-21T05:29:07;0.90;;;0.30;;
43664;SDS011;29263;48.172;11.484;2024-02-21T05:34:17;1.23;;;0.40;;
43664;SDS011;29263;48.172;11.484;2024-02-21T05:36:42;2.90;;;0.40;;
43664;SDS011;29263;48.172;11.484;2024-02-21T05:39:09;0.50;;;0.40;;
43664;SDS011;29263;48.172;11.484;2024-02-21T05:41:34;0.70;;;0.30;;
43664;SDS011;29263;48.172;11.484;2024-02-21T05:44:00;2.30;;;0.53;;
43664;SDS011;29263;48.172;11.484;2024-02-21T05:46:26;1.60;;;0.30;;
43664;SDS011;29263;48.172;11.484;2024-02-21T05:48:51;2.00;;;0.30;;
43664;SDS011;29263;48.172;11.484;2024-02-21T05:51:17;2.93;;;0.50;;
43664;SDS011;29263;48.172;11.484;2024-02-21T05:53:43;0.63;;;0.40;;
43664;SDS011;29263;48.172;11.484;2024-02-21T05:56:12;2.93;;;0.70;;
43664;SDS011;29263;48.172;11.484;2024-02-21T06:01:04;1.60;;;0.53;;
43664;SDS011;29263;48.172;11.484;2024-02-21T06:03:31;0.70;;;0.40;;
43664;SDS011;29263;48.172;11.484;2024-02-21T06:05:57;0.87;;;0.50;;
43664;SDS011;29263;48.172;11.484;2024-02-21T06:08:23;1.00;;;0.80;;
43664;SDS011;29263;48.172;11.484;2024-02-21T06:10:49;1.30;;;0.40;;
43664;SDS011;29263;48.172;11.484;2024-02-21T06:15:46;1.57;;;0.50;;
43664;SDS011;29263;48.172;11.484;2024-02-21T06:18:12;2.63;;;0.50;;
43664;SDS011;29263;48.172;11.484;2024-02-21T06:20:37;1.67;;;0.40;;
43664;SDS011;29263;48.172;11.484;2024-02-21T06:23:05;0.37;;;0.27;;
43664;SDS011;29263;48.172;11.484;2024-02-21T06:25:31;1.23;;;0.50;;
43664;SDS011;29263;48.172;11.484;2024-02-21T06:27:57;0.73;;;0.40;;
43664;SDS011;29263;48.172;11.484;2024-02-21T06:30:22;1.07;;;0.33;;
43664;SDS011;29263;48.172;11.484;2024-02-21T06:32:48;2.60;;;0.40;;
43664;SDS011;29263;48.172;11.484;2024-02-21T06:35:13;0.47;;;0.30;;
43664;SDS011;29263;48.172;11.484;2024-02-21T06:37:39;2.87;;;0.30;;
43664;SDS011;29263;48.172;11.484;2024-02-21T06:40:05;0.33;;;0.20;;
43664;SDS011;29263;48.172;11.484;2024-02-21T06:42:31;0.20;;;0.20;;
43664;SDS011;29263;48.172;11.484;2024-02-21T06:44:57;0.30;;;0.20;;
43664;SDS011;29263;48.172;11.484;2024-02-21T06:47:22;0.60;;;0.30;;
43664;SDS011;29263;48.172;11.484;2024-02-21T06:49:48;0.90;;;0.40;;
43664;SDS011;29263;48.172;11.484;2024-02-21T06:52:17;7.93;;;0.40;;
43664;SDS011;29263;48.172;11.484;2024-02-21T06:54:45;0.57;;;0.30;;
43664;SDS011;29263;48.172;11.484;2024-02-21T06:57:13;0.90;;;0.30;;
43664;SDS011;29263;48.172;11.484;2024-02-21T06:59:40;1.53;;;0.30;;
43664;SDS011;29263;48.172;11.484;2024-02-21T07:02:06;0.80;;;0.20;;
43664;SDS011;29263;48.172;11.484;2024-02-21T07:04:32;0.67;;;0.40;;
43664;SDS011;29263;48.172;11.484;2024-02-21T07:06:57;4.00;;;0.40;;
43664;SDS011;29263;48.172;11.484;2024-02-21T07:09:23;0.27;;;0.10;;
43664;SDS011;29263;48.172;11.484;2024-02-21T07:11:49;1.23;;;0.30;;
43664;SDS011;29263;48.172;11.484;2024-02-21T07:14:14;2.00;;;0.37;;
43664;SDS011;29263;48.172;11.484;2024-02-21T07:16:40;0.43;;;0.27;;
43664;SDS011;29263;48.172;11.484;2024-02-21T07:19:06;0.73;;;0.30;;
43664;SDS011;29263;48.172;11.484;2024-02-21T07:21:32;2.20;;;0.60;;
43664;SDS011;29263;48.172;11.484;2024-02-21T07:23:57;1.33;;;0.33;;
43664;SDS011;29263;48.172;11.484;2024-02-21T07:26:23;1.13;;;0.40;;
43664;SDS011;29263;48.172;11.484;2024-02-21T07:28:48;1.60;;;1.33;;
43664;SDS011;29263;48.172;11.484;2024-02-21T07:31:14;1.17;;;0.30;;
43664;SDS011;29263;48.172;11.484;2024-02-21T07:33:40;1.43;;;0.50;;
43664;SDS011;29263;48.172;11.484;2024-02-21T07:36:09;1.33;;;0.47;;
43664;SDS011;29263;48.172;11.484;2024-02-21T07:38:36;0.30;;;0.23;;
43664;SDS011;29263;48.172;11.484;2024-02-21T07:41:01;1.90;;;0.47;;
43664;SDS011;29263;48.172;11.484;2024-02-21T07:43:29;1.30;;;0.40;;
43664;SDS011;29263;48.172;11.484;2024-02-21T07:45:54;0.50;;;0.40;;
43664;SDS011;29263;48.172;11.484;2024-02-21T07:48:21;1.27;;;0.50;;
43664;SDS011;29263;48.172;11.484;2024-02-21T07:50:49;1.95;;;0.50;;
43664;SDS011;29263;48.172;11.484;2024-02-21T07:53:15;1.47;;;0.53;;
43664;SDS011;29263;48.172;11.484;2024-02-21T07:55:41;0.43;;;0.20;;
43664;SDS011;29263;48.172;11.484;2024-02-21T07:58:07;2.53;;;0.40;;
43664;SDS011;29263;48.172;11.484;2024-02-21T08:00:32;0.70;;;0.30;;
43664;SDS011;29263;48.172;11.484;2024-02-21T08:02:58;1.57;;;0.40;;
43664;SDS011;29263;48.172;11.484;2024-02-21T08:05:24;3.70;;;0.43;;
43664;SDS011;29263;48.172;11.484;2024-02-21T08:07:49;0.73;;;0.70;;
43664;SDS011;29263;48.172;11.484;2024-02-21T08:10:15;1.00;;;0.30;;
43664;SDS011;29263;48.172;11.484;2024-02-21T08:12:41;1.90;;;0.40;;
43664;SDS011;29263;48.172;11.484;2024-02-21T08:15:06;1.37;;;0.33;;
43664;SDS011;29263;48.172;11.484;2024-02-21T08:17:35;2.20;;;0.50;;
43664;SDS011;29263;48.172;11.484;2024-02-21T08:20:01;0.83;;;0.40;;
43664;SDS011;29263;48.172;11.484;2024-02-21T08:22:27;2.80;;;0.50;;
43664;SDS011;29263;48.172;11.484;2024-02-21T08:24:53;2.17;;;1.00;;
43664;SDS011;29263;48.172;11.484;2024-02-21T08:27:19;0.77;;;0.50;;
43664;SDS011;29263;48.172;11.484;2024-02-21T08:29:44;3.83;;;0.30;;
43664;SDS011;29263;48.172;11.484;2024-02-21T08:32:11;0.67;;;0.40;;
43664;SDS011;29263;48.172;11.484;2024-02-21T08:34:37;0.57;;;0.40;;
43664;SDS011;29263;48.172;11.484;2024-02-21T08:37:02;1.93;;;0.40;;
43664;SDS011;29263;48.172;11.484;2024-02-21T08:39:28;0.37;;;0.30;;
43664;SDS011;29263;48.172;11.484;2024-02-21T08:41:55;0.70;;;0.40;;
43664;SDS011;29263;48.172;11.484;2024-02-21T08:44:22;1.93;;;0.50;;
43664;SDS011;29263;48.172;11.484;2024-02-21T08:46:49;1.50;;;0.40;;
43664;SDS011;29263;48.172;11.484;2024-02-21T08:49:14;1.13;;;0.57;;
43664;SDS011;29263;48.172;11.484;2024-02-21T08:51:40;3.60;;;0.53;;
43664;SDS011;29263;48.172;11.484;2024-02-21T08:54:05;0.37;;;0.30;;
43664;SDS011;29263;48.172;11.484;2024-02-21T08:56:31;1.37;;;0.77;;
43664;SDS011;29263;48.172;11.484;2024-02-21T08:58:57;0.67;;;0.20;;
43664;SDS011;29263;48.172;11.484;2024-02-21T09:01:23;0.50;;;0.20;;
43664;SDS011;29263;48.172;11.484;2024-02-21T09:03:49;1.47;;;0.30;;
43664;SDS011;29263;48.172;11.484;2024-02-21T09:06:18;0.45;;;0.22;;
43664;SDS011;29263;48.172;11.484;2024-02-21T09:08:45;0.47;;;0.20;;
43664;SDS011;29263;48.172;11.484;2024-02-21T09:11:10;0.70;;;0.30;;
43664;SDS011;29263;48.172;11.484;2024-02-21T09:13:36;0.50;;;0.30;;
43664;SDS011;29263;48.172;11.484;2024-02-21T09:16:02;1.83;;;1.03;;
43664;SDS011;29263;48.172;11.484;2024-02-21T09:18:28;3.30;;;0.47;;
43664;SDS011;29263;48.172;11.484;2024-02-21T09:20:54;0.70;;;0.30;;
43664;SDS011;29263;48.172;11.484;2024-02-21T09:23:20;0.50;;;0.20;;
43664;SDS011;29263;48.172;11.484;2024-02-21T09:25:48;2.00;;;0.20;;
43664;SDS011;29263;48.172;11.484;2024-02-21T09:28:14;1.40;;;0.90;;
43664;SDS011;29263;48.172;11.484;2024-02-21T09:30:39;0.43;;;0.30;;
43664;SDS011;29263;48.172;11.484;2024-02-21T09:33:05;0.57;;;0.37;;
43664;SDS011;29263;48.172;11.484;2024-02-21T09:35:31;0.80;;;0.40;;
43664;SDS011;29263;48.172;11.484;2024-02-21T09:37:58;1.13;;;0.83;;
43664;SDS011;29263;48.172;11.484;2024-02-21T09:40:24;2.57;;;0.40;;
43664;SDS011;29263;48.172;11.484;2024-02-21T09:42:52;1.47;;;0.60;;
43664;SDS011;29263;48.172;11.484;2024-02-21T09:45:29;0.63;;;0.30;;
43664;SDS011;29263;48.172;11.484;2024-02-21T09:50:47;2.53;;;0.20;;
43664;SDS011;29263;48.172;11.484;2024-02-21T09:53:14;0.20;;;0.20;;
43664;SDS011;29263;48.172;11.484;2024-02-21T09:55:40;0.30;;;0.10;;
43664;SDS011;29263;48.172;11.484;2024-02-21T09:58:07;0.50;;;0.20;;
43664;SDS011;29263;48.172;11.484;2024-02-21T10:00:33;3.10;;;0.27;;
43664;SDS011;29263;48.172;11.484;2024-02-21T10:03:00;0.73;;;0.30;;
43664;SDS011;29263;48.172;11.484;2024-02-21T10:05:25;0.87;;;0.30;;
43664;SDS011;29263;48.172;11.484;2024-02-21T10:07:52;0.67;;;0.30;;
43664;SDS011;29263;48.172;11.484;2024-02-21T10:10:19;1.03;;;0.30;;
43664;SDS011;29263;48.172;11.484;2024-02-21T10:12:50;0.50;;;0.20;;
43664;SDS011;29263;48.172;11.484;2024-02-21T10:15:20;0.77;;;0.43;;
43664;SDS011;29263;48.172;11.484;2024-02-21T10:17:49;0.37;;;0.23;;
43664;SDS011;29263;48.172;11.484;2024-02-21T10:20:23;0.43;;;0.27;;
43664;SDS011;29263;48.172;11.484;2024-02-21T10:22:49;0.53;;;0.30;;
43664;SDS011;29263;48.172;11.484;2024-02-21T10:25:27;1.30;;;0.33;;
43664;SDS011;29263;48.172;11.484;2024-02-21T10:27:52;0.40;;;0.20;;
43664;SDS011;29263;48.172;11.484;2024-02-21T10:30:18;0.93;;;0.30;;
43664;SDS011;29263;48.172;11.484;2024-02-21T10:32:51;0.60;;;0.30;;
43664;SDS011;29263;48.172;11.484;2024-02-21T10:35:29;1.20;;;0.30;;
43664;SDS011;29263;48.172;11.484;2024-02-21T10:37:56;1.27;;;0.37;;
43664;SDS011;29263;48.172;11.484;2024-02-21T10:40:25;2.00;;;0.50;;
43664;SDS011;29263;48.172;11.484;2024-02-21T10:42:56;0.52;;;0.20;;
43664;SDS011;29263;48.172;11.484;2024-02-21T10:45:29;0.40;;;0.20;;
43664;SDS011;29263;48.172;11.484;2024-02-21T10:47:59;1.07;;;0.40;;
43664;SDS011;29263;48.172;11.484;2024-02-21T10:50:31;0.30;;;0.10;;
43664;SDS011;29263;48.172;11.484;2024-02-21T10:53:06;0.70;;;0.10;;
43664;SDS011;29263;48.172;11.484;2024-02-21T10:55:58;0.20;;;0.10;;
43664;SDS011;29263;48.172;11.484;2024-02-21T10:58:44;2.43;;;0.10;;
43664;SDS011;29263;48.172;11.484;2024-02-21T11:01:12;1.15;;;0.10;;
43664;SDS011;29263;48.172;11.484;2024-02-21T11:03:40;0.32;;;0.05;;
43664;SDS011;29263;48.172;11.484;2024-02-21T11:06:08;2.47;;;0.17;;
43664;SDS011;29263;48.172;11.484;2024-02-21T11:08:36;0.20;;;0.17;;
43664;SDS011;29263;48.172;11.484;2024-02-21T11:11:02;2.17;;;0.20;;
43664;SDS011;29263;48.172;11.484;2024-02-21T11:13:34;0.65;;;0.28;;
43664;SDS011;29263;48.172;11.484;2024-02-21T11:16:09;2.85;;;0.15;;
43664;SDS011;29263;48.172;11.484;2024-02-21T11:18:39;0.32;;;0.20;;
43664;SDS011;29263;48.172;11.484;2024-02-21T11:21:05;0.40;;;0.20;;
43664;SDS011;29263;48.172;11.484;2024-02-21T11:23:31;0.25;;;0.17;;
43664;SDS011;29263;48.172;11.484;2024-02-21T11:26:09;2.55;;;0.20;;
43664;SDS011;29263;48.172;11.484;2024-02-21T11:28:44;0.20;;;0.20;;
43664;SDS011;29263;48.172;11.484;2024-02-21T11:31:13;1.17;;;0.10;;
43664;SDS011;29263;48.172;11.484;2024-02-21T11:33:39;2.45;;;0.20;;
43664;SDS011;29263;48.172;11.484;2024-02-21T11:36:09;1.95;;;0.30;;
43664;SDS011;29263;48.172;11.484;2024-02-21T11:38:35;0.55;;;0.20;;
43664;SDS011;29263;48.172;11.484;2024-02-21T11:41:00;0.60;;;0.15;;
43664;SDS011;29263;48.172;11.484;2024-02-21T11:43:27;0.20;;;0.20;;
43664;SDS011;29263;48.172;11.484;2024-02-21T11:45:59;0.20;;;0.00;;
43664;SDS011;29263;48.172;11.484;2024-02-21T11:48:26;0.28;;;0.10;;
43664;SDS011;29263;48.172;11.484;2024-02-21T11:50:52;0.77;;;0.10;;
43664;SDS011;29263;48.172;11.484;2024-02-21T11:53:20;1.27;;;0.20;;
43664;SDS011;29263;48.172;11.484;2024-02-21T11:55:46;0.17;;;0.10;;
43664;SDS011;29263;48.172;11.484;2024-02-21T11:58:12;0.50;;;0.10;;
43664;SDS011;29263;48.172;11.484;2024-02-21T12:00:37;0.40;;;0.20;;
43664;SDS011;29263;48.172;11.484;2024-02-21T12:03:04;0.63;;;0.10;;
43664;SDS011;29263;48.172;11.484;2024-02-21T12:05:30;0.25;;;0.10;;
43664;SDS011;29263;48.172;11.484;2024-02-21T12:07:57;0.50;;;0.30;;
43664;SDS011;29263;48.172;11.484;2024-02-21T12:10:23;0.10;;;0.10;;
43664;SDS011;29263;48.172;11.484;2024-02-21T12:12:49;0.63;;;0.28;;
43664;SDS011;29263;48.172;11.484;2024-02-21T12:15:17;0.47;;;0.10;;
43664;SDS011;29263;48.172;11.484;2024-02-21T12:17:43;0.32;;;0.10;;
43664;SDS011;29263;48.172;11.484;2024-02-21T12:20:10;0.80;;;0.20;;
43664;SDS011;29263;48.172;11.484;2024-02-21T12:22:39;0.35;;;0.15;;
43664;SDS011;29263;48.172;11.484;2024-02-21T12:25:19;0.10;;;0.10;;
43664;SDS011;29263;48.172;11.484;2024-02-21T12:27:48;0.30;;;0.20;;
43664;SDS011;29263;48.172;11.484;2024-02-21T12:30:14;0.85;;;0.30;;
43664;SDS011;29263;48.172;11.484;2024-02-21T12:32:43;0.15;;;0.10;;
43664;SDS011;29263;48.172;11.484;2024-02-21T12:35:09;0.28;;;0.10;;
43664;SDS011;29263;48.172;11.484;2024-02-21T12:37:37;0.30;;;0.10;;
43664;SDS011;29263;48.172;11.484;2024-02-21T12:40:04;0.20;;;0.20;;
43664;SDS011;29263;48.172;11.484;2024-02-21T12:42:38;0.25;;;0.10;;
43664;SDS011;29263;48.172;11.484;2024-02-21T12:45:06;0.45;;;0.20;;
43664;SDS011;29263;48.172;11.484;2024-02-21T12:47:35;0.20;;;0.17;;
43664;SDS011;29263;48.172;11.484;2024-02-21T12:50:01;0.30;;;0.10;;
43664;SDS011;29263;48.172;11.484;2024-02-21T12:52:32;0.32;;;0.20;;
43664;SDS011;29263;48.172;11.484;2024-02-21T12:58:54;0.20;;;0.10;;
43664;SDS011;29263;48.172;11.484;2024-02-21T13:05:16;0.47;;;0.47;;
43664;SDS011;29263;48.172;11.484;2024-02-21T13:07:55;0.10;;;0.10;;
43664;SDS011;29263;48.172;11.484;2024-02-21T13:10:21;1.08;;;0.17;;
43664;SDS011;29263;48.172;11.484;2024-02-21T13:12:47;0.60;;;0.10;;
43664;SDS011;29263;48.172;11.484;2024-02-21T13:15:13;1.58;;;0.50;;
43664;SDS011;29263;48.172;11.484;2024-02-21T13:17:41;3.25;;;0.30;;
43664;SDS011;29263;48.172;11.484;2024-02-21T13:20:09;0.40;;;0.25;;
43664;SDS011;29263;48.172;11.484;2024-02-21T13:22:36;0.80;;;0.30;;
43664;SDS011;29263;48.172;11.484;2024-02-21T13:25:08;0.30;;;0.20;;
43664;SDS011;29263;48.172;11.484;2024-02-21T13:27:36;0.52;;;0.28;;
43664;SDS011;29263;48.172;11.484;2024-02-21T13:30:02;0.43;;;0.20;;
43664;SDS011;29263;48.172;11.484;2024-02-21T13:32:32;0.30;;;0.20;;
43664;SDS011;29263;48.172;11.484;2024-02-21T13:34:58;0.63;;;0.20;;
43664;SDS011;29263;48.172;11.484;2024-02-21T13:37:27;0.68;;;0.20;;
43664;SDS011;29263;48.172;11.484;2024-02-21T13:39:55;0.93;;;0.20;;
43664;SDS011;29263;48.172;11.484;2024-02-21T13:42:24;0.90;;;0.30;;
43664;SDS011;29263;48.172;11.484;2024-02-21T13:48:14;0.47;;;0.22;;
43664;SDS011;29263;48.172;11.484;2024-02-21T13:50:49;0.30;;;0.20;;
43664;SDS011;29263;48.172;11.484;2024-02-21T13:53:18;1.65;;;0.10;;
43664;SDS011;29263;48.172;11.484;2024-02-21T13:56:19;1.77;;;0.20;;
43664;SDS011;29263;48.172;11.484;2024-02-21T13:58:47;0.20;;;0.20;;
43664;SDS011;29263;48.172;11.484;2024-02-21T14:01:16;0.60;;;0.10;;
43664;SDS011;29263;48.172;11.484;2024-02-21T14:04:12;2.72;;;0.20;;
43664;SDS011;29263;48.172;11.484;2024-02-21T14:06:47;0.20;;;0.10;;
43664;SDS011;29263;48.172;11.484;2024-02-21T14:09:15;0.30;;;0.13;;
43664;SDS011;29263;48.172;11.484;2024-02-21T14:11:42;0.22;;;0.10;;
43664;SDS011;29263;48.172;11.484;2024-02-21T14:14:19;0.70;;;0.20;;
43664;SDS011;29263;48.172;11.484;2024-02-21T14:16:47;2.08;;;0.25;;
43664;SDS011;29263;48.172;11.484;2024-02-21T14:19:18;0.55;;;0.20;;
43664;SDS011;29263;48.172;11.484;2024-02-21T14:21:44;0.35;;;0.20;;
43664;SDS011;29263;48.172;11.484;2024-02-21T14:24:10;0.65;;;0.13;;
43664;SDS011;29263;48.172;11.484;2024-02-21T14:26:37;0.30;;;0.10;;
43664;SDS011;29263;48.172;11.484;2024-02-21T14:29:04;0.95;;;0.60;;
43664;SDS011;29263;48.172;11.484;2024-02-21T14:31:32;3.70;;;0.28;;
43664;SDS011;29263;48.172;11.484;2024-02-21T14:33:58;0.30;;;0.10;;
43664;SDS011;29263;48.172;11.484;2024-02-21T14:36:25;0.77;;;0.30;;
43664;SDS011;29263;48.172;11.484;2024-02-21T14:38:51;0.80;;;0.22;;
43664;SDS011;29263;48.172;11.484;2024-02-21T14:41:17;0.20;;;0.17;;
43664;SDS011;29263;48.172;11.484;2024-02-21T14:43:43;0.10;;;0.10;;
43664;SDS011;29263;48.172;11.484;2024-02-21T14:46:09;4.80;;;0.30;;
43664;SDS011;29263;48.172;11.484;2024-02-21T14:48:37;0.20;;;0.20;;
43664;SDS011;29263;48.172;11.484;2024-02-21T14:51:03;0.73;;;0.45;;
43664;SDS011;29263;48.172;11.484;2024-02-21T14:53:29;0.30;;;0.30;;